sensor_id;sensor_type;location;lat;lon;timestamp;pressure;altitude;pressure_sealevel;temperature
37536;BMP180;23379;51.554;6.736;2024-01-06T00:01:45;99717.00;;;7.40
37536;BMP180;23379;51.554;6.736;2024-01-06T00:04:10;99705.00;;;7.50
37536;BMP180;23379;51.554;6.736;2024-01-06T00:06:35;99710.00;;;7.70
37536;BMP180;23379;51.554;6.736;2024-01-06T00:09:01;99713.00;;;7.80
37536;BMP180;23379;51.554;6.736;2024-01-06T00:11:26;99712.00;;;7.80
37536;BMP180;23379;51.554;6.736;2024-01-06T00:13:51;99726.00;;;7.80
37536;BMP180;23379;51.554;6.736;2024-01-06T00:16:17;99722.00;;;7.80
37536;BMP180;23379;51.554;6.736;2024-01-06T00:18:44;99733.00;;;7.60
37536;BMP180;23379;51.554;6.736;2024-01-06T00:21:09;99714.00;;;7.60
37536;BMP180;23379;51.554;6.736;2024-01-06T00:23:34;99721.00;;;7.60
37536;BMP180;23379;51.554;6.736;2024-01-06T00:25:59;99722.00;;;7.60
37536;BMP180;23379;51.554;6.736;2024-01-06T00:28:25;99708.00;;;7.60
37536;BMP180;23379;51.554;6.736;2024-01-06T00:30:50;99723.00;;;7.60
37536;BMP180;23379;51.554;6.736;2024-01-06T00:33:16;99728.00;;;7.50
37536;BMP180;23379;51.554;6.736;2024-01-06T00:35:41;99723.00;;;7.60
37536;BMP180;23379;51.554;6.736;2024-01-06T00:38:06;99718.00;;;7.60
37536;BMP180;23379;51.554;6.736;2024-01-06T00:40:32;99718.00;;;7.50
37536;BMP180;23379;51.554;6.736;2024-01-06T00:42:58;99739.00;;;7.60
37536;BMP180;23379;51.554;6.736;2024-01-06T00:45:23;99720.00;;;7.60
37536;BMP180;23379;51.554;6.736;2024-01-06T00:47:49;99725.00;;;7.60
37536;BMP180;23379;51.554;6.736;2024-01-06T00:50:14;99749.00;;;7.50
37536;BMP180;23379;51.554;6.736;2024-01-06T00:52:41;99736.00;;;7.50
37536;BMP180;23379;51.554;6.736;2024-01-06T00:55:07;99739.00;;;7.60
37536;BMP180;23379;51.554;6.736;2024-01-06T00:57:32;99745.00;;;7.50
37536;BMP180;23379;51.554;6.736;2024-01-06T00:59:58;99747.00;;;7.60
37536;BMP180;23379;51.554;6.736;2024-01-06T01:02:23;99734.00;;;7.30
37536;BMP180;23379;51.554;6.736;2024-01-06T01:04:48;99739.00;;;7.40
37536;BMP180;23379;51.554;6.736;2024-01-06T01:07:14;99735.00;;;7.60
37536;BMP180;23379;51.554;6.736;2024-01-06T01:09:39;99746.00;;;7.50
37536;BMP180;23379;51.554;6.736;2024-01-06T01:12:05;99746.00;;;7.60
37536;BMP180;23379;51.554;6.736;2024-01-06T01:14:30;99743.00;;;7.60
37536;BMP180;23379;51.554;6.736;2024-01-06T01:16:55;99749.00;;;7.80
37536;BMP180;23379;51.554;6.736;2024-01-06T01:19:21;99758.00;;;7.70
37536;BMP180;23379;51.554;6.736;2024-01-06T01:21:46;99754.00;;;7.40
37536;BMP180;23379;51.554;6.736;2024-01-06T01:24:11;99758.00;;;7.50
37536;BMP180;23379;51.554;6.736;2024-01-06T01:26:37;99761.00;;;7.60
37536;BMP180;23379;51.554;6.736;2024-01-06T01:29:02;99768.00;;;7.60
37536;BMP180;23379;51.554;6.736;2024-01-06T01:31:27;99769.00;;;7.60
37536;BMP180;23379;51.554;6.736;2024-01-06T01:33:53;99769.00;;;7.70
37536;BMP180;23379;51.554;6.736;2024-01-06T01:36:18;99764.00;;;7.80
37536;BMP180;23379;51.554;6.736;2024-01-06T01:38:43;99763.00;;;7.90
37536;BMP180;23379;51.554;6.736;2024-01-06T01:41:09;99774.00;;;7.80
37536;BMP180;23379;51.554;6.736;2024-01-06T01:43:34;99782.00;;;7.80
37536;BMP180;23379;51.554;6.736;2024-01-06T01:46:00;99770.00;;;7.80
37536;BMP180;23379;51.554;6.736;2024-01-06T01:48:25;99773.00;;;7.80
37536;BMP180;23379;51.554;6.736;2024-01-06T01:50:52;99752.00;;;7.80
37536;BMP180;23379;51.554;6.736;2024-01-06T01:53:18;99760.00;;;7.60
37536;BMP180;23379;51.554;6.736;2024-01-06T01:55:44;99795.00;;;7.80
37536;BMP180;23379;51.554;6.736;2024-01-06T01:58:12;99781.00;;;7.70
37536;BMP180;23379;51.554;6.736;2024-01-06T02:00:38;99788.00;;;7.60
37536;BMP180;23379;51.554;6.736;2024-01-06T02:03:05;99793.00;;;7.80
37536;BMP180;23379;51.554;6.736;2024-01-06T02:05:30;99803.00;;;7.90
37536;BMP180;23379;51.554;6.736;2024-01-06T02:07:56;99780.00;;;7.70
37536;BMP180;23379;51.554;6.736;2024-01-06T02:10:22;99826.00;;;7.60
37536;BMP180;23379;51.554;6.736;2024-01-06T02:12:48;99821.00;;;7.30
37536;BMP180;23379;51.554;6.736;2024-01-06T02:15:13;99794.00;;;7.40
37536;BMP180;23379;51.554;6.736;2024-01-06T02:17:39;99818.00;;;7.40
37536;BMP180;23379;51.554;6.736;2024-01-06T02:20:06;99826.00;;;7.50
37536;BMP180;23379;51.554;6.736;2024-01-06T02:22:32;99779.00;;;7.30
37536;BMP180;23379;51.554;6.736;2024-01-06T02:24:58;99823.00;;;7.30
37536;BMP180;23379;51.554;6.736;2024-01-06T02:27:23;99804.00;;;7.30
37536;BMP180;23379;51.554;6.736;2024-01-06T02:29:49;99813.00;;;7.20
37536;BMP180;23379;51.554;6.736;2024-01-06T02:32:14;99770.00;;;6.70
37536;BMP180;23379;51.554;6.736;2024-01-06T02:34:39;99853.00;;;7.00
37536;BMP180;23379;51.554;6.736;2024-01-06T02:37:05;99857.00;;;7.20
37536;BMP180;23379;51.554;6.736;2024-01-06T02:39:30;99859.00;;;7.20
37536;BMP180;23379;51.554;6.736;2024-01-06T02:41:55;99851.00;;;6.90
37536;BMP180;23379;51.554;6.736;2024-01-06T02:44:21;99789.00;;;6.80
37536;BMP180;23379;51.554;6.736;2024-01-06T02:46:46;99863.00;;;6.80
37536;BMP180;23379;51.554;6.736;2024-01-06T02:49:11;99869.00;;;6.80
37536;BMP180;23379;51.554;6.736;2024-01-06T02:51:37;99873.00;;;6.70
37536;BMP180;23379;51.554;6.736;2024-01-06T02:54:02;99843.00;;;6.40
37536;BMP180;23379;51.554;6.736;2024-01-06T02:56:28;99865.00;;;6.40
37536;BMP180;23379;51.554;6.736;2024-01-06T02:58:53;99893.00;;;6.50
37536;BMP180;23379;51.554;6.736;2024-01-06T03:01:18;99879.00;;;6.50
37536;BMP180;23379;51.554;6.736;2024-01-06T03:03:44;99881.00;;;6.40
37536;BMP180;23379;51.554;6.736;2024-01-06T03:06:09;99897.00;;;6.50
37536;BMP180;23379;51.554;6.736;2024-01-06T03:08:34;99874.00;;;6.50
37536;BMP180;23379;51.554;6.736;2024-01-06T03:11:00;99907.00;;;6.50
37536;BMP180;23379;51.554;6.736;2024-01-06T03:13:26;99868.00;;;6.30
37536;BMP180;23379;51.554;6.736;2024-01-06T03:15:51;99893.00;;;6.30
37536;BMP180;23379;51.554;6.736;2024-01-06T03:18:16;99895.00;;;6.10
37536;BMP180;23379;51.554;6.736;2024-01-06T03:20:42;99880.00;;;6.40
37536;BMP180;23379;51.554;6.736;2024-01-06T03:23:07;99910.00;;;6.60
37536;BMP180;23379;51.554;6.736;2024-01-06T03:25:32;99927.00;;;6.40
37536;BMP180;23379;51.554;6.736;2024-01-06T03:27:58;99903.00;;;6.60
37536;BMP180;23379;51.554;6.736;2024-01-06T03:30:23;99918.00;;;6.60
37536;BMP180;23379;51.554;6.736;2024-01-06T03:32:49;99879.00;;;6.80
37536;BMP180;23379;51.554;6.736;2024-01-06T03:35:14;99922.00;;;7.00
37536;BMP180;23379;51.554;6.736;2024-01-06T03:37:40;99921.00;;;6.50
37536;BMP180;23379;51.554;6.736;2024-01-06T03:40:06;99919.00;;;6.50
37536;BMP180;23379;51.554;6.736;2024-01-06T03:42:32;99913.00;;;6.40
37536;BMP180;23379;51.554;6.736;2024-01-06T03:44:57;99935.00;;;6.60
37536;BMP180;23379;51.554;6.736;2024-01-06T03:47:23;99938.00;;;6.80
37536;BMP180;23379;51.554;6.736;2024-01-06T03:49:48;99946.00;;;6.80
37536;BMP180;23379;51.554;6.736;2024-01-06T03:52:14;99933.00;;;6.80
37536;BMP180;23379;51.554;6.736;2024-01-06T03:54:39;99901.00;;;6.70
37536;BMP180;23379;51.554;6.736;2024-01-06T03:57:05;99954.00;;;6.70
37536;BMP180;23379;51.554;6.736;2024-01-06T03:59:30;99935.00;;;6.60
37536;BMP180;23379;51.554;6.736;2024-01-06T04:01:55;99968.00;;;6.90
37536;BMP180;23379;51.554;6.736;2024-01-06T04:04:21;99951.00;;;7.10
37536;BMP180;23379;51.554;6.736;2024-01-06T04:06:46;99970.00;;;7.00
37536;BMP180;23379;51.554;6.736;2024-01-06T04:09:12;99972.00;;;7.10
37536;BMP180;23379;51.554;6.736;2024-01-06T04:11:37;99965.00;;;7.10
37536;BMP180;23379;51.554;6.736;2024-01-06T04:14:03;99964.00;;;6.90
37536;BMP180;23379;51.554;6.736;2024-01-06T04:16:28;99956.00;;;6.90
37536;BMP180;23379;51.554;6.736;2024-01-06T04:18:54;99976.00;;;6.90
37536;BMP180;23379;51.554;6.736;2024-01-06T04:21:19;99967.00;;;6.40
37536;BMP180;23379;51.554;6.736;2024-01-06T04:23:44;99922.00;;;6.70
37536;BMP180;23379;51.554;6.736;2024-01-06T04:26:10;99971.00;;;6.80
37536;BMP180;23379;51.554;6.736;2024-01-06T04:28:35;99970.00;;;6.70
37536;BMP180;23379;51.554;6.736;2024-01-06T04:31:01;99958.00;;;6.20
37536;BMP180;23379;51.554;6.736;2024-01-06T04:33:26;99978.00;;;6.40
37536;BMP180;23379;51.554;6.736;2024-01-06T04:35:51;99920.00;;;6.50
37536;BMP180;23379;51.554;6.736;2024-01-06T04:38:17;99956.00;;;6.10
37536;BMP180;23379;51.554;6.736;2024-01-06T04:40:42;99948.00;;;6.10
37536;BMP180;23379;51.554;6.736;2024-01-06T04:43:08;99990.00;;;5.80
37536;BMP180;23379;51.554;6.736;2024-01-06T04:45:33;99975.00;;;6.10
37536;BMP180;23379;51.554;6.736;2024-01-06T04:47:59;99926.00;;;6.00
37536;BMP180;23379;51.554;6.736;2024-01-06T04:50:25;99969.00;;;6.10
37536;BMP180;23379;51.554;6.736;2024-01-06T04:52:50;99969.00;;;6.00
37536;BMP180;23379;51.554;6.736;2024-01-06T04:55:15;99995.00;;;6.30
37536;BMP180;23379;51.554;6.736;2024-01-06T04:57:41;99981.00;;;6.40
37536;BMP180;23379;51.554;6.736;2024-01-06T05:00:06;99964.00;;;6.40
37536;BMP180;23379;51.554;6.736;2024-01-06T05:02:32;99972.00;;;6.10
37536;BMP180;23379;51.554;6.736;2024-01-06T05:04:58;99989.00;;;5.80
37536;BMP180;23379;51.554;6.736;2024-01-06T05:07:23;99980.00;;;5.80
37536;BMP180;23379;51.554;6.736;2024-01-06T05:09:48;99994.00;;;5.90
37536;BMP180;23379;51.554;6.736;2024-01-06T05:12:14;100017.00;;;5.80
37536;BMP180;23379;51.554;6.736;2024-01-06T05:14:39;100011.00;;;5.90
37536;BMP180;23379;51.554;6.736;2024-01-06T05:17:04;99982.00;;;6.00
37536;BMP180;23379;51.554;6.736;2024-01-06T05:19:30;99998.00;;;6.00
37536;BMP180;23379;51.554;6.736;2024-01-06T05:21:56;99991.00;;;6.20
37536;BMP180;23379;51.554;6.736;2024-01-06T05:24:22;100018.00;;;6.10
37536;BMP180;23379;51.554;6.736;2024-01-06T05:26:47;100011.00;;;6.30
37536;BMP180;23379;51.554;6.736;2024-01-06T05:29:13;99999.00;;;6.30
37536;BMP180;23379;51.554;6.736;2024-01-06T05:31:38;99969.00;;;5.60
37536;BMP180;23379;51.554;6.736;2024-01-06T05:34:03;100013.00;;;5.90
37536;BMP180;23379;51.554;6.736;2024-01-06T05:36:29;100016.00;;;6.30
37536;BMP180;23379;51.554;6.736;2024-01-06T05:38:55;99992.00;;;6.10
37536;BMP180;23379;51.554;6.736;2024-01-06T05:41:20;100005.00;;;6.30
37536;BMP180;23379;51.554;6.736;2024-01-06T05:43:46;100031.00;;;6.00
37536;BMP180;23379;51.554;6.736;2024-01-06T05:46:11;100020.00;;;6.10
37536;BMP180;23379;51.554;6.736;2024-01-06T05:48:37;100040.00;;;6.20
37536;BMP180;23379;51.554;6.736;2024-01-06T05:51:05;100043.00;;;6.00
37536;BMP180;23379;51.554;6.736;2024-01-06T05:53:31;99979.00;;;6.00
37536;BMP180;23379;51.554;6.736;2024-01-06T05:55:56;100010.00;;;6.30
37536;BMP180;23379;51.554;6.736;2024-01-06T05:58:22;99998.00;;;6.50
37536;BMP180;23379;51.554;6.736;2024-01-06T06:00:47;100024.00;;;6.30
37536;BMP180;23379;51.554;6.736;2024-01-06T06:03:13;100064.00;;;6.10
37536;BMP180;23379;51.554;6.736;2024-01-06T06:05:38;100029.00;;;6.10
37536;BMP180;23379;51.554;6.736;2024-01-06T06:08:04;100049.00;;;6.10
37536;BMP180;23379;51.554;6.736;2024-01-06T06:10:30;100058.00;;;6.00
37536;BMP180;23379;51.554;6.736;2024-01-06T06:13:06;100052.00;;;6.20
37536;BMP180;23379;51.554;6.736;2024-01-06T06:15:32;100075.00;;;6.20
37536;BMP180;23379;51.554;6.736;2024-01-06T06:17:58;100019.00;;;6.40
37536;BMP180;23379;51.554;6.736;2024-01-06T06:20:25;100074.00;;;6.50
37536;BMP180;23379;51.554;6.736;2024-01-06T06:22:50;100088.00;;;6.40
37536;BMP180;23379;51.554;6.736;2024-01-06T06:25:16;100084.00;;;6.50
37536;BMP180;23379;51.554;6.736;2024-01-06T06:27:41;100100.00;;;6.40
37536;BMP180;23379;51.554;6.736;2024-01-06T06:30:07;100095.00;;;6.50
37536;BMP180;23379;51.554;6.736;2024-01-06T06:32:33;100087.00;;;6.50
37536;BMP180;23379;51.554;6.736;2024-01-06T06:34:58;100110.00;;;6.20
37536;BMP180;23379;51.554;6.736;2024-01-06T06:37:24;100084.00;;;6.10
37536;BMP180;23379;51.554;6.736;2024-01-06T06:39:49;100087.00;;;6.00
37536;BMP180;23379;51.554;6.736;2024-01-06T06:42:14;100122.00;;;6.00
37536;BMP180;23379;51.554;6.736;2024-01-06T06:44:40;100120.00;;;5.80
37536;BMP180;23379;51.554;6.736;2024-01-06T06:47:05;100123.00;;;5.80
37536;BMP180;23379;51.554;6.736;2024-01-06T06:49:31;100138.00;;;5.50
37536;BMP180;23379;51.554;6.736;2024-01-06T06:51:56;100150.00;;;5.50
37536;BMP180;23379;51.554;6.736;2024-01-06T06:54:21;100139.00;;;5.00
37536;BMP180;23379;51.554;6.736;2024-01-06T06:56:47;100128.00;;;5.30
37536;BMP180;23379;51.554;6.736;2024-01-06T06:59:12;100099.00;;;5.50
37536;BMP180;23379;51.554;6.736;2024-01-06T07:01:37;100164.00;;;5.40
37536;BMP180;23379;51.554;6.736;2024-01-06T07:04:03;100171.00;;;5.50
37536;BMP180;23379;51.554;6.736;2024-01-06T07:06:29;100160.00;;;5.30
37536;BMP180;23379;51.554;6.736;2024-01-06T07:08:55;100166.00;;;5.20
37536;BMP180;23379;51.554;6.736;2024-01-06T07:11:20;100168.00;;;5.30
37536;BMP180;23379;51.554;6.736;2024-01-06T07:13:46;100164.00;;;5.40
37536;BMP180;23379;51.554;6.736;2024-01-06T07:16:12;100139.00;;;5.20
37536;BMP180;23379;51.554;6.736;2024-01-06T07:18:37;100176.00;;;5.30
37536;BMP180;23379;51.554;6.736;2024-01-06T07:21:06;100158.00;;;4.90
37536;BMP180;23379;51.554;6.736;2024-01-06T07:23:34;100200.00;;;4.70
37536;BMP180;23379;51.554;6.736;2024-01-06T07:25:59;100200.00;;;4.60
37536;BMP180;23379;51.554;6.736;2024-01-06T07:28:26;100187.00;;;4.50
37536;BMP180;23379;51.554;6.736;2024-01-06T07:30:51;100152.00;;;4.70
37536;BMP180;23379;51.554;6.736;2024-01-06T07:33:17;100151.00;;;5.00
37536;BMP180;23379;51.554;6.736;2024-01-06T07:35:42;100211.00;;;5.00
37536;BMP180;23379;51.554;6.736;2024-01-06T07:38:12;100232.00;;;5.00
37536;BMP180;23379;51.554;6.736;2024-01-06T07:40:37;100222.00;;;5.00
37536;BMP180;23379;51.554;6.736;2024-01-06T07:43:03;100210.00;;;4.90
37536;BMP180;23379;51.554;6.736;2024-01-06T07:45:29;100235.00;;;4.80
37536;BMP180;23379;51.554;6.736;2024-01-06T07:47:55;100231.00;;;4.50
37536;BMP180;23379;51.554;6.736;2024-01-06T07:50:20;100234.00;;;4.30
37536;BMP180;23379;51.554;6.736;2024-01-06T07:52:45;100226.00;;;4.30
37536;BMP180;23379;51.554;6.736;2024-01-06T07:55:11;100225.00;;;4.70
37536;BMP180;23379;51.554;6.736;2024-01-06T07:57:36;100231.00;;;4.70
37536;BMP180;23379;51.554;6.736;2024-01-06T08:00:01;100230.00;;;4.80
37536;BMP180;23379;51.554;6.736;2024-01-06T08:02:27;100247.00;;;4.60
37536;BMP180;23379;51.554;6.736;2024-01-06T08:04:53;100254.00;;;4.50
37536;BMP180;23379;51.554;6.736;2024-01-06T08:07:21;100263.00;;;4.50
37536;BMP180;23379;51.554;6.736;2024-01-06T08:09:46;100261.00;;;4.50
37536;BMP180;23379;51.554;6.736;2024-01-06T08:12:11;100258.00;;;4.60
37536;BMP180;23379;51.554;6.736;2024-01-06T08:14:37;100265.00;;;4.40
37536;BMP180;23379;51.554;6.736;2024-01-06T08:17:02;100270.00;;;4.70
37536;BMP180;23379;51.554;6.736;2024-01-06T08:19:28;100263.00;;;4.70
37536;BMP180;23379;51.554;6.736;2024-01-06T08:21:55;100261.00;;;4.60
37536;BMP180;23379;51.554;6.736;2024-01-06T08:24:21;100273.00;;;4.70
37536;BMP180;23379;51.554;6.736;2024-01-06T08:26:47;100288.00;;;4.40
37536;BMP180;23379;51.554;6.736;2024-01-06T08:29:12;100276.00;;;4.70
37536;BMP180;23379;51.554;6.736;2024-01-06T08:31:39;100280.00;;;4.60
37536;BMP180;23379;51.554;6.736;2024-01-06T08:34:04;100296.00;;;4.70
37536;BMP180;23379;51.554;6.736;2024-01-06T08:36:31;100291.00;;;5.00
37536;BMP180;23379;51.554;6.736;2024-01-06T08:38:56;100315.00;;;5.00
37536;BMP180;23379;51.554;6.736;2024-01-06T08:41:21;100262.00;;;4.90
37536;BMP180;23379;51.554;6.736;2024-01-06T08:43:47;100312.00;;;5.10
37536;BMP180;23379;51.554;6.736;2024-01-06T08:46:12;100266.00;;;4.80
37536;BMP180;23379;51.554;6.736;2024-01-06T08:48:37;100255.00;;;4.80
37536;BMP180;23379;51.554;6.736;2024-01-06T08:51:03;100270.00;;;4.80
37536;BMP180;23379;51.554;6.736;2024-01-06T08:53:28;100315.00;;;4.80
37536;BMP180;23379;51.554;6.736;2024-01-06T08:55:54;100318.00;;;4.90
37536;BMP180;23379;51.554;6.736;2024-01-06T08:58:19;100337.00;;;4.90
37536;BMP180;23379;51.554;6.736;2024-01-06T09:00:44;100332.00;;;5.00
37536;BMP180;23379;51.554;6.736;2024-01-06T09:03:10;100345.00;;;4.90
37536;BMP180;23379;51.554;6.736;2024-01-06T09:05:37;100323.00;;;5.10
37536;BMP180;23379;51.554;6.736;2024-01-06T09:08:03;100357.00;;;4.90
37536;BMP180;23379;51.554;6.736;2024-01-06T09:10:28;100335.00;;;4.80
37536;BMP180;23379;51.554;6.736;2024-01-06T09:12:54;100361.00;;;4.80
37536;BMP180;23379;51.554;6.736;2024-01-06T09:15:20;100349.00;;;4.50
37536;BMP180;23379;51.554;6.736;2024-01-06T09:17:45;100366.00;;;4.20
37536;BMP180;23379;51.554;6.736;2024-01-06T09:20:11;100388.00;;;4.40
37536;BMP180;23379;51.554;6.736;2024-01-06T09:22:36;100365.00;;;4.40
37536;BMP180;23379;51.554;6.736;2024-01-06T09:25:01;100394.00;;;4.10
37536;BMP180;23379;51.554;6.736;2024-01-06T09:27:27;100376.00;;;4.30
37536;BMP180;23379;51.554;6.736;2024-01-06T09:29:52;100345.00;;;4.30
37536;BMP180;23379;51.554;6.736;2024-01-06T09:32:18;100397.00;;;4.10
37536;BMP180;23379;51.554;6.736;2024-01-06T09:34:43;100388.00;;;4.20
37536;BMP180;23379;51.554;6.736;2024-01-06T09:37:08;100390.00;;;4.10
37536;BMP180;23379;51.554;6.736;2024-01-06T09:39:34;100406.00;;;4.30
37536;BMP180;23379;51.554;6.736;2024-01-06T09:41:59;100407.00;;;4.40
37536;BMP180;23379;51.554;6.736;2024-01-06T09:44:24;100409.00;;;4.60
37536;BMP180;23379;51.554;6.736;2024-01-06T09:46:50;100436.00;;;4.20
37536;BMP180;23379;51.554;6.736;2024-01-06T09:49:22;100434.00;;;4.20
37536;BMP180;23379;51.554;6.736;2024-01-06T09:51:49;100443.00;;;4.00
37536;BMP180;23379;51.554;6.736;2024-01-06T09:54:22;100440.00;;;4.00
37536;BMP180;23379;51.554;6.736;2024-01-06T09:56:48;100434.00;;;4.20
37536;BMP180;23379;51.554;6.736;2024-01-06T09:59:15;100368.00;;;4.10
37536;BMP180;23379;51.554;6.736;2024-01-06T10:01:41;100447.00;;;4.20
37536;BMP180;23379;51.554;6.736;2024-01-06T10:04:06;100423.00;;;4.00
37536;BMP180;23379;51.554;6.736;2024-01-06T10:06:32;100430.00;;;4.30
37536;BMP180;23379;51.554;6.736;2024-01-06T10:08:58;100435.00;;;4.10
37536;BMP180;23379;51.554;6.736;2024-01-06T10:11:23;100373.00;;;4.10
37536;BMP180;23379;51.554;6.736;2024-01-06T10:13:50;100428.00;;;4.20
37536;BMP180;23379;51.554;6.736;2024-01-06T10:16:19;100434.00;;;4.20
37536;BMP180;23379;51.554;6.736;2024-01-06T10:18:45;100452.00;;;3.90
37536;BMP180;23379;51.554;6.736;2024-01-06T10:21:10;100416.00;;;4.10
37536;BMP180;23379;51.554;6.736;2024-01-06T10:23:36;100458.00;;;4.30
37536;BMP180;23379;51.554;6.736;2024-01-06T10:26:01;100474.00;;;4.10
37536;BMP180;23379;51.554;6.736;2024-01-06T10:28:28;100474.00;;;4.00
37536;BMP180;23379;51.554;6.736;2024-01-06T10:30:55;100413.00;;;4.00
37536;BMP180;23379;51.554;6.736;2024-01-06T10:33:26;100482.00;;;4.10
37536;BMP180;23379;51.554;6.736;2024-01-06T10:35:52;100460.00;;;4.10
37536;BMP180;23379;51.554;6.736;2024-01-06T10:38:17;100463.00;;;4.10
37536;BMP180;23379;51.554;6.736;2024-01-06T10:41:03;100482.00;;;3.90
37536;BMP180;23379;51.554;6.736;2024-01-06T10:43:33;100472.00;;;4.00
37536;BMP180;23379;51.554;6.736;2024-01-06T10:46:07;100481.00;;;4.20
37536;BMP180;23379;51.554;6.736;2024-01-06T10:48:36;100486.00;;;4.30
37536;BMP180;23379;51.554;6.736;2024-01-06T10:51:04;100483.00;;;4.00
37536;BMP180;23379;51.554;6.736;2024-01-06T10:53:33;100420.00;;;3.70
37536;BMP180;23379;51.554;6.736;2024-01-06T10:55:59;100445.00;;;4.00
37536;BMP180;23379;51.554;6.736;2024-01-06T10:58:25;100459.00;;;4.30
37536;BMP180;23379;51.554;6.736;2024-01-06T11:00:51;100474.00;;;4.30
37536;BMP180;23379;51.554;6.736;2024-01-06T11:03:17;100474.00;;;4.30
37536;BMP180;23379;51.554;6.736;2024-01-06T11:05:43;100451.00;;;4.40
37536;BMP180;23379;51.554;6.736;2024-01-06T11:08:09;100469.00;;;4.50
37536;BMP180;23379;51.554;6.736;2024-01-06T11:10:36;100481.00;;;4.30
37536;BMP180;23379;51.554;6.736;2024-01-06T11:13:09;100418.00;;;4.60
37536;BMP180;23379;51.554;6.736;2024-01-06T11:15:48;100471.00;;;4.50
37536;BMP180;23379;51.554;6.736;2024-01-06T11:18:39;100492.00;;;4.20
37536;BMP180;23379;51.554;6.736;2024-01-06T11:21:15;100499.00;;;4.50
37536;BMP180;23379;51.554;6.736;2024-01-06T11:26:31;100476.00;;;4.30
37536;BMP180;23379;51.554;6.736;2024-01-06T11:28:57;100469.00;;;4.40
37536;BMP180;23379;51.554;6.736;2024-01-06T11:31:25;100438.00;;;4.10
37536;BMP180;23379;51.554;6.736;2024-01-06T11:33:54;100476.00;;;4.00
37536;BMP180;23379;51.554;6.736;2024-01-06T11:36:19;100458.00;;;4.10
37536;BMP180;23379;51.554;6.736;2024-01-06T11:38:46;100493.00;;;4.30
37536;BMP180;23379;51.554;6.736;2024-01-06T11:41:47;100491.00;;;4.40
37536;BMP180;23379;51.554;6.736;2024-01-06T11:44:13;100480.00;;;4.30
37536;BMP180;23379;51.554;6.736;2024-01-06T11:46:40;100485.00;;;4.30
37536;BMP180;23379;51.554;6.736;2024-01-06T11:49:07;100483.00;;;4.40
37536;BMP180;23379;51.554;6.736;2024-01-06T11:51:34;100483.00;;;4.00
37536;BMP180;23379;51.554;6.736;2024-01-06T11:54:00;100486.00;;;4.30
37536;BMP180;23379;51.554;6.736;2024-01-06T11:56:26;100448.00;;;4.30
37536;BMP180;23379;51.554;6.736;2024-01-06T11:58:51;100453.00;;;4.00
37536;BMP180;23379;51.554;6.736;2024-01-06T12:01:17;100477.00;;;4.00
37536;BMP180;23379;51.554;6.736;2024-01-06T12:03:42;100455.00;;;4.30
37536;BMP180;23379;51.554;6.736;2024-01-06T12:06:07;100462.00;;;4.30
37536;BMP180;23379;51.554;6.736;2024-01-06T12:08:33;100435.00;;;3.90
37536;BMP180;23379;51.554;6.736;2024-01-06T12:11:02;100491.00;;;4.00
37536;BMP180;23379;51.554;6.736;2024-01-06T12:13:28;100389.00;;;3.70
37536;BMP180;23379;51.554;6.736;2024-01-06T12:15:54;100410.00;;;3.70
37536;BMP180;23379;51.554;6.736;2024-01-06T12:18:20;100458.00;;;3.50
37536;BMP180;23379;51.554;6.736;2024-01-06T12:20:46;100457.00;;;3.70
37536;BMP180;23379;51.554;6.736;2024-01-06T12:23:11;100417.00;;;3.60
37536;BMP180;23379;51.554;6.736;2024-01-06T12:25:36;100492.00;;;3.70
37536;BMP180;23379;51.554;6.736;2024-01-06T12:28:05;100488.00;;;4.00
37536;BMP180;23379;51.554;6.736;2024-01-06T12:30:30;100490.00;;;4.00
37536;BMP180;23379;51.554;6.736;2024-01-06T12:32:56;100495.00;;;4.00
37536;BMP180;23379;51.554;6.736;2024-01-06T12:35:22;100493.00;;;3.70
37536;BMP180;23379;51.554;6.736;2024-01-06T12:37:48;100503.00;;;3.80
37536;BMP180;23379;51.554;6.736;2024-01-06T12:40:14;100438.00;;;3.80
37536;BMP180;23379;51.554;6.736;2024-01-06T12:42:42;100496.00;;;3.90
37536;BMP180;23379;51.554;6.736;2024-01-06T12:45:08;100521.00;;;3.70
37536;BMP180;23379;51.554;6.736;2024-01-06T12:47:33;100512.00;;;4.00
37536;BMP180;23379;51.554;6.736;2024-01-06T12:49:59;100465.00;;;3.80
37536;BMP180;23379;51.554;6.736;2024-01-06T12:52:24;100518.00;;;3.60
37536;BMP180;23379;51.554;6.736;2024-01-06T12:54:50;100523.00;;;3.60
37536;BMP180;23379;51.554;6.736;2024-01-06T12:57:15;100503.00;;;3.70
37536;BMP180;23379;51.554;6.736;2024-01-06T12:59:41;100514.00;;;3.50
37536;BMP180;23379;51.554;6.736;2024-01-06T13:02:06;100503.00;;;3.20
37536;BMP180;23379;51.554;6.736;2024-01-06T13:04:31;100528.00;;;3.10
37536;BMP180;23379;51.554;6.736;2024-01-06T13:06:57;100521.00;;;3.20
37536;BMP180;23379;51.554;6.736;2024-01-06T13:09:22;100514.00;;;3.30
37536;BMP180;23379;51.554;6.736;2024-01-06T13:11:49;100453.00;;;3.00
37536;BMP180;23379;51.554;6.736;2024-01-06T13:14:16;100537.00;;;3.30
37536;BMP180;23379;51.554;6.736;2024-01-06T13:16:43;100549.00;;;3.20
37536;BMP180;23379;51.554;6.736;2024-01-06T13:19:08;100514.00;;;3.50
37536;BMP180;23379;51.554;6.736;2024-01-06T13:21:34;100539.00;;;3.10
37536;BMP180;23379;51.554;6.736;2024-01-06T13:24:00;100525.00;;;3.10
37536;BMP180;23379;51.554;6.736;2024-01-06T13:26:27;100546.00;;;3.40
37536;BMP180;23379;51.554;6.736;2024-01-06T13:28:53;100531.00;;;3.60
37536;BMP180;23379;51.554;6.736;2024-01-06T13:31:19;100535.00;;;3.50
37536;BMP180;23379;51.554;6.736;2024-01-06T13:33:44;100521.00;;;3.50
37536;BMP180;23379;51.554;6.736;2024-01-06T13:36:09;100528.00;;;3.30
37536;BMP180;23379;51.554;6.736;2024-01-06T13:38:35;100533.00;;;3.50
37536;BMP180;23379;51.554;6.736;2024-01-06T13:41:00;100556.00;;;3.80
37536;BMP180;23379;51.554;6.736;2024-01-06T13:43:26;100546.00;;;3.50
37536;BMP180;23379;51.554;6.736;2024-01-06T13:45:51;100557.00;;;3.30
37536;BMP180;23379;51.554;6.736;2024-01-06T13:48:17;100539.00;;;3.20
37536;BMP180;23379;51.554;6.736;2024-01-06T13:50:44;100566.00;;;3.10
37536;BMP180;23379;51.554;6.736;2024-01-06T13:53:13;100556.00;;;3.40
37536;BMP180;23379;51.554;6.736;2024-01-06T13:55:39;100568.00;;;3.20
37536;BMP180;23379;51.554;6.736;2024-01-06T13:58:04;100558.00;;;3.40
37536;BMP180;23379;51.554;6.736;2024-01-06T14:00:29;100566.00;;;3.00
37536;BMP180;23379;51.554;6.736;2024-01-06T14:02:55;100588.00;;;3.00
37536;BMP180;23379;51.554;6.736;2024-01-06T14:05:22;100540.00;;;2.80
37536;BMP180;23379;51.554;6.736;2024-01-06T14:07:47;100599.00;;;2.70
37536;BMP180;23379;51.554;6.736;2024-01-06T14:10:15;100557.00;;;2.80